sensor_id;sensor_type;location;lat;lon;timestamp;P1;durP1;ratioP1;P2;durP2;ratioP2
63536;SDS011;49686;51.880;5.632;2023-12-07T00:01:05;23.95;;;11.75;;
63536;SDS011;49686;51.880;5.632;2023-12-07T00:03:32;18.40;;;10.63;;
63536;SDS011;49686;51.880;5.632;2023-12-07T00:05:59;21.45;;;11.82;;
63536;SDS011;49686;51.880;5.632;2023-12-07T00:08:26;21.38;;;12.43;;
63536;SDS011;49686;51.880;5.632;2023-12-07T00:10:54;21.10;;;11.48;;
63536;SDS011;49686;51.880;5.632;2023-12-07T00:13:21;21.60;;;11.80;;
63536;SDS011;49686;51.880;5.632;2023-12-07T00:15:48;19.65;;;11.27;;
63536;SDS011;49686;51.880;5.632;2023-12-07T00:18:15;16.95;;;10.20;;
63536;SDS011;49686;51.880;5.632;2023-12-07T00:20:42;21.58;;;11.10;;
63536;SDS011;49686;51.880;5.632;2023-12-07T00:23:09;22.73;;;11.07;;
63536;SDS011;49686;51.880;5.632;2023-12-07T00:25:36;19.60;;;10.90;;
63536;SDS011;49686;51.880;5.632;2023-12-07T00:28:04;17.30;;;10.18;;
63536;SDS011;49686;51.880;5.632;2023-12-07T00:30:31;16.02;;;9.43;;
63536;SDS011;49686;51.880;5.632;2023-12-07T00:32:58;16.88;;;9.77;;
63536;SDS011;49686;51.880;5.632;2023-12-07T00:35:25;17.75;;;10.77;;
63536;SDS011;49686;51.880;5.632;2023-12-07T00:37:52;17.90;;;10.27;;
63536;SDS011;49686;51.880;5.632;2023-12-07T00:40:19;17.48;;;9.48;;
63536;SDS011;49686;51.880;5.632;2023-12-07T00:42:46;18.90;;;10.88;;
63536;SDS011;49686;51.880;5.632;2023-12-07T00:45:14;19.80;;;10.65;;
63536;SDS011;49686;51.880;5.632;2023-12-07T00:47:41;19.83;;;9.90;;
63536;SDS011;49686;51.880;5.632;2023-12-07T00:50:11;17.35;;;10.23;;
63536;SDS011;49686;51.880;5.632;2023-12-07T00:52:38;18.02;;;11.07;;
63536;SDS011;49686;51.880;5.632;2023-12-07T00:55:05;22.20;;;11.00;;
63536;SDS011;49686;51.880;5.632;2023-12-07T00:57:37;18.40;;;10.90;;
63536;SDS011;49686;51.880;5.632;2023-12-07T01:00:05;20.65;;;11.15;;
63536;SDS011;49686;51.880;5.632;2023-12-07T01:02:35;18.67;;;10.95;;
63536;SDS011;49686;51.880;5.632;2023-12-07T01:05:02;21.48;;;11.13;;
63536;SDS011;49686;51.880;5.632;2023-12-07T01:07:30;19.35;;;10.50;;
63536;SDS011;49686;51.880;5.632;2023-12-07T01:09:57;19.70;;;11.57;;
63536;SDS011;49686;51.880;5.632;2023-12-07T01:12:24;18.35;;;10.70;;
63536;SDS011;49686;51.880;5.632;2023-12-07T01:14:51;20.55;;;10.73;;
63536;SDS011;49686;51.880;5.632;2023-12-07T01:17:18;19.27;;;11.18;;
63536;SDS011;49686;51.880;5.632;2023-12-07T01:19:46;17.40;;;10.75;;
63536;SDS011;49686;51.880;5.632;2023-12-07T01:22:13;19.88;;;11.70;;
63536;SDS011;49686;51.880;5.632;2023-12-07T01:24:40;17.58;;;10.93;;
63536;SDS011;49686;51.880;5.632;2023-12-07T01:27:07;21.23;;;11.75;;
63536;SDS011;49686;51.880;5.632;2023-12-07T01:29:33;22.80;;;11.70;;
63536;SDS011;49686;51.880;5.632;2023-12-07T01:32:00;21.25;;;12.68;;
63536;SDS011;49686;51.880;5.632;2023-12-07T01:34:27;22.67;;;13.45;;
63536;SDS011;49686;51.880;5.632;2023-12-07T01:36:55;24.00;;;12.80;;
63536;SDS011;49686;51.880;5.632;2023-12-07T01:39:22;22.83;;;12.75;;
63536;SDS011;49686;51.880;5.632;2023-12-07T01:41:49;24.10;;;12.77;;
63536;SDS011;49686;51.880;5.632;2023-12-07T01:44:16;22.13;;;12.85;;
63536;SDS011;49686;51.880;5.632;2023-12-07T01:46:43;22.75;;;13.30;;
63536;SDS011;49686;51.880;5.632;2023-12-07T01:49:10;23.73;;;13.63;;
63536;SDS011;49686;51.880;5.632;2023-12-07T01:51:37;25.40;;;13.75;;
63536;SDS011;49686;51.880;5.632;2023-12-07T01:54:05;24.63;;;11.85;;
63536;SDS011;49686;51.880;5.632;2023-12-07T01:56:32;26.30;;;13.70;;
63536;SDS011;49686;51.880;5.632;2023-12-07T01:58:59;23.25;;;12.15;;
63536;SDS011;49686;51.880;5.632;2023-12-07T02:01:26;17.92;;;10.50;;
63536;SDS011;49686;51.880;5.632;2023-12-07T02:03:53;17.58;;;10.55;;
63536;SDS011;49686;51.880;5.632;2023-12-07T02:06:20;28.13;;;13.13;;
63536;SDS011;49686;51.880;5.632;2023-12-07T02:08:47;26.23;;;13.90;;
63536;SDS011;49686;51.880;5.632;2023-12-07T02:11:16;25.05;;;13.05;;
63536;SDS011;49686;51.880;5.632;2023-12-07T02:13:42;24.45;;;13.77;;
63536;SDS011;49686;51.880;5.632;2023-12-07T02:16:11;22.40;;;12.02;;
63536;SDS011;49686;51.880;5.632;2023-12-07T02:18:44;23.58;;;13.32;;
63536;SDS011;49686;51.880;5.632;2023-12-07T02:21:18;17.75;;;10.52;;
63536;SDS011;49686;51.880;5.632;2023-12-07T02:23:51;24.95;;;12.93;;
63536;SDS011;49686;51.880;5.632;2023-12-07T02:26:20;19.13;;;10.18;;
63536;SDS011;49686;51.880;5.632;2023-12-07T02:28:50;20.67;;;12.00;;
63536;SDS011;49686;51.880;5.632;2023-12-07T02:31:16;27.60;;;13.75;;
63536;SDS011;49686;51.880;5.632;2023-12-07T02:33:43;24.67;;;12.05;;
63536;SDS011;49686;51.880;5.632;2023-12-07T02:36:11;23.48;;;14.00;;
63536;SDS011;49686;51.880;5.632;2023-12-07T02:38:41;20.38;;;11.85;;
63536;SDS011;49686;51.880;5.632;2023-12-07T02:41:08;19.33;;;10.90;;
63536;SDS011;49686;51.880;5.632;2023-12-07T02:43:37;19.55;;;11.98;;
63536;SDS011;49686;51.880;5.632;2023-12-07T02:46:06;22.67;;;13.15;;
63536;SDS011;49686;51.880;5.632;2023-12-07T02:48:32;25.88;;;15.65;;
63536;SDS011;49686;51.880;5.632;2023-12-07T02:50:59;24.70;;;14.32;;
63536;SDS011;49686;51.880;5.632;2023-12-07T02:53:26;25.80;;;15.30;;
63536;SDS011;49686;51.880;5.632;2023-12-07T02:55:53;24.52;;;14.52;;
63536;SDS011;49686;51.880;5.632;2023-12-07T02:58:20;19.10;;;11.52;;
63536;SDS011;49686;51.880;5.632;2023-12-07T03:00:47;25.48;;;14.75;;
63536;SDS011;49686;51.880;5.632;2023-12-07T03:03:15;26.20;;;14.48;;
63536;SDS011;49686;51.880;5.632;2023-12-07T03:05:42;26.80;;;14.98;;
63536;SDS011;49686;51.880;5.632;2023-12-07T03:08:09;28.67;;;15.45;;
63536;SDS011;49686;51.880;5.632;2023-12-07T03:10:36;29.35;;;15.18;;
63536;SDS011;49686;51.880;5.632;2023-12-07T03:13:03;26.45;;;14.82;;
63536;SDS011;49686;51.880;5.632;2023-12-07T03:15:30;16.45;;;9.88;;
63536;SDS011;49686;51.880;5.632;2023-12-07T03:17:57;25.65;;;14.23;;
63536;SDS011;49686;51.880;5.632;2023-12-07T03:20:25;26.75;;;15.68;;
63536;SDS011;49686;51.880;5.632;2023-12-07T03:22:52;22.55;;;13.98;;
63536;SDS011;49686;51.880;5.632;2023-12-07T03:25:19;24.35;;;14.15;;
63536;SDS011;49686;51.880;5.632;2023-12-07T03:27:46;26.40;;;15.43;;
63536;SDS011;49686;51.880;5.632;2023-12-07T03:30:13;22.45;;;13.20;;
63536;SDS011;49686;51.880;5.632;2023-12-07T03:32:40;17.17;;;11.05;;
63536;SDS011;49686;51.880;5.632;2023-12-07T03:35:07;24.73;;;14.10;;
63536;SDS011;49686;51.880;5.632;2023-12-07T03:37:35;18.27;;;10.35;;
63536;SDS011;49686;51.880;5.632;2023-12-07T03:40:02;25.45;;;14.98;;
63536;SDS011;49686;51.880;5.632;2023-12-07T03:42:29;20.33;;;11.10;;
63536;SDS011;49686;51.880;5.632;2023-12-07T03:45:16;25.00;;;13.93;;
63536;SDS011;49686;51.880;5.632;2023-12-07T03:47:43;20.15;;;11.85;;
63536;SDS011;49686;51.880;5.632;2023-12-07T03:50:10;23.23;;;12.02;;
63536;SDS011;49686;51.880;5.632;2023-12-07T03:52:38;28.42;;;15.13;;
63536;SDS011;49686;51.880;5.632;2023-12-07T03:55:05;18.60;;;10.73;;
63536;SDS011;49686;51.880;5.632;2023-12-07T03:57:33;26.38;;;14.68;;
63536;SDS011;49686;51.880;5.632;2023-12-07T03:59:59;36.05;;;14.07;;
63536;SDS011;49686;51.880;5.632;2023-12-07T04:02:27;52.67;;;13.15;;
63536;SDS011;49686;51.880;5.632;2023-12-07T04:04:53;71.43;;;14.10;;
63536;SDS011;49686;51.880;5.632;2023-12-07T04:07:20;71.93;;;12.93;;
63536;SDS011;49686;51.880;5.632;2023-12-07T04:09:48;45.80;;;12.38;;
63536;SDS011;49686;51.880;5.632;2023-12-07T04:12:15;56.13;;;14.43;;
63536;SDS011;49686;51.880;5.632;2023-12-07T04:14:42;75.32;;;14.70;;
63536;SDS011;49686;51.880;5.632;2023-12-07T04:17:09;90.60;;;14.73;;
63536;SDS011;49686;51.880;5.632;2023-12-07T04:19:36;32.17;;;10.55;;
63536;SDS011;49686;51.880;5.632;2023-12-07T04:22:03;134.63;;;16.92;;
63536;SDS011;49686;51.880;5.632;2023-12-07T04:24:30;25.23;;;9.77;;
63536;SDS011;49686;51.880;5.632;2023-12-07T04:26:58;23.23;;;9.80;;
63536;SDS011;49686;51.880;5.632;2023-12-07T04:29:25;78.13;;;14.70;;
63536;SDS011;49686;51.880;5.632;2023-12-07T04:31:52;70.43;;;13.18;;
63536;SDS011;49686;51.880;5.632;2023-12-07T04:34:19;76.05;;;14.65;;
63536;SDS011;49686;51.880;5.632;2023-12-07T04:36:46;79.45;;;16.33;;
63536;SDS011;49686;51.880;5.632;2023-12-07T04:39:13;29.10;;;12.82;;
63536;SDS011;49686;51.880;5.632;2023-12-07T04:41:40;43.92;;;11.27;;
63536;SDS011;49686;51.880;5.632;2023-12-07T04:44:08;43.72;;;14.27;;
63536;SDS011;49686;51.880;5.632;2023-12-07T04:46:35;26.55;;;12.68;;
63536;SDS011;49686;51.880;5.632;2023-12-07T04:49:03;49.60;;;14.48;;
63536;SDS011;49686;51.880;5.632;2023-12-07T04:51:30;23.35;;;11.32;;
63536;SDS011;49686;51.880;5.632;2023-12-07T04:53:56;34.33;;;11.95;;
63536;SDS011;49686;51.880;5.632;2023-12-07T04:56:39;50.63;;;13.23;;
63536;SDS011;49686;51.880;5.632;2023-12-07T04:59:07;30.70;;;11.90;;
63536;SDS011;49686;51.880;5.632;2023-12-07T05:04:02;21.50;;;10.25;;
63536;SDS011;49686;51.880;5.632;2023-12-07T05:06:29;31.20;;;10.63;;
63536;SDS011;49686;51.880;5.632;2023-12-07T05:08:56;54.15;;;13.18;;
63536;SDS011;49686;51.880;5.632;2023-12-07T05:11:23;24.77;;;11.38;;
63536;SDS011;49686;51.880;5.632;2023-12-07T05:13:50;27.58;;;10.52;;
63536;SDS011;49686;51.880;5.632;2023-12-07T05:16:18;36.28;;;14.63;;
63536;SDS011;49686;51.880;5.632;2023-12-07T05:18:45;29.30;;;11.40;;
63536;SDS011;49686;51.880;5.632;2023-12-07T05:21:12;26.90;;;11.30;;
63536;SDS011;49686;51.880;5.632;2023-12-07T05:23:39;42.08;;;12.88;;
63536;SDS011;49686;51.880;5.632;2023-12-07T05:26:06;36.55;;;13.35;;
63536;SDS011;49686;51.880;5.632;2023-12-07T05:28:33;41.85;;;13.90;;
63536;SDS011;49686;51.880;5.632;2023-12-07T05:31:02;36.92;;;13.30;;
63536;SDS011;49686;51.880;5.632;2023-12-07T05:33:31;21.42;;;9.45;;
63536;SDS011;49686;51.880;5.632;2023-12-07T05:35:58;92.75;;;15.60;;
63536;SDS011;49686;51.880;5.632;2023-12-07T05:38:25;33.45;;;11.45;;
63536;SDS011;49686;51.880;5.632;2023-12-07T05:40:52;25.58;;;9.55;;
63536;SDS011;49686;51.880;5.632;2023-12-07T05:43:18;31.73;;;10.90;;
63536;SDS011;49686;51.880;5.632;2023-12-07T05:45:45;57.88;;;13.30;;
63536;SDS011;49686;51.880;5.632;2023-12-07T05:48:12;42.90;;;12.23;;
63536;SDS011;49686;51.880;5.632;2023-12-07T05:50:41;78.57;;;13.90;;
63536;SDS011;49686;51.880;5.632;2023-12-07T05:53:08;56.47;;;14.93;;
63536;SDS011;49686;51.880;5.632;2023-12-07T05:55:35;30.83;;;11.60;;
63536;SDS011;49686;51.880;5.632;2023-12-07T05:58:03;51.45;;;13.52;;
63536;SDS011;49686;51.880;5.632;2023-12-07T06:00:32;60.75;;;14.23;;
63536;SDS011;49686;51.880;5.632;2023-12-07T06:02:59;41.17;;;12.57;;
63536;SDS011;49686;51.880;5.632;2023-12-07T06:05:26;77.53;;;12.93;;
63536;SDS011;49686;51.880;5.632;2023-12-07T06:07:54;43.75;;;11.95;;
63536;SDS011;49686;51.880;5.632;2023-12-07T06:10:21;39.75;;;11.70;;
63536;SDS011;49686;51.880;5.632;2023-12-07T06:12:48;45.97;;;11.00;;
63536;SDS011;49686;51.880;5.632;2023-12-07T06:15:15;62.65;;;12.10;;
63536;SDS011;49686;51.880;5.632;2023-12-07T06:17:42;50.47;;;12.15;;
63536;SDS011;49686;51.880;5.632;2023-12-07T06:20:09;34.75;;;13.07;;
63536;SDS011;49686;51.880;5.632;2023-12-07T06:22:37;23.52;;;9.35;;
63536;SDS011;49686;51.880;5.632;2023-12-07T06:25:05;16.27;;;8.98;;
63536;SDS011;49686;51.880;5.632;2023-12-07T06:27:33;49.67;;;11.20;;
63536;SDS011;49686;51.880;5.632;2023-12-07T06:30:00;59.08;;;13.32;;
63536;SDS011;49686;51.880;5.632;2023-12-07T06:32:26;38.33;;;10.77;;
63536;SDS011;49686;51.880;5.632;2023-12-07T06:34:54;40.83;;;12.80;;
63536;SDS011;49686;51.880;5.632;2023-12-07T06:37:21;43.33;;;12.48;;
63536;SDS011;49686;51.880;5.632;2023-12-07T06:39:47;17.13;;;8.98;;
63536;SDS011;49686;51.880;5.632;2023-12-07T06:42:16;34.25;;;11.35;;
63536;SDS011;49686;51.880;5.632;2023-12-07T06:44:43;17.58;;;8.88;;
63536;SDS011;49686;51.880;5.632;2023-12-07T06:47:10;60.67;;;10.90;;
63536;SDS011;49686;51.880;5.632;2023-12-07T06:49:37;24.00;;;9.85;;
63536;SDS011;49686;51.880;5.632;2023-12-07T06:52:17;49.40;;;11.23;;
63536;SDS011;49686;51.880;5.632;2023-12-07T06:54:44;34.75;;;12.00;;
63536;SDS011;49686;51.880;5.632;2023-12-07T06:57:11;26.83;;;9.98;;
63536;SDS011;49686;51.880;5.632;2023-12-07T06:59:39;33.80;;;11.82;;
63536;SDS011;49686;51.880;5.632;2023-12-07T07:02:06;74.55;;;12.35;;
63536;SDS011;49686;51.880;5.632;2023-12-07T07:04:33;29.45;;;10.77;;
63536;SDS011;49686;51.880;5.632;2023-12-07T07:07:01;39.95;;;11.43;;
63536;SDS011;49686;51.880;5.632;2023-12-07T07:09:28;33.58;;;10.18;;
63536;SDS011;49686;51.880;5.632;2023-12-07T07:11:54;39.85;;;10.85;;
63536;SDS011;49686;51.880;5.632;2023-12-07T07:14:21;22.13;;;9.07;;
63536;SDS011;49686;51.880;5.632;2023-12-07T07:16:50;22.17;;;8.73;;
63536;SDS011;49686;51.880;5.632;2023-12-07T07:19:17;45.15;;;10.55;;
63536;SDS011;49686;51.880;5.632;2023-12-07T07:21:44;26.48;;;9.30;;
63536;SDS011;49686;51.880;5.632;2023-12-07T07:24:11;19.88;;;9.48;;
63536;SDS011;49686;51.880;5.632;2023-12-07T07:26:38;44.35;;;10.50;;
63536;SDS011;49686;51.880;5.632;2023-12-07T07:29:05;69.80;;;11.30;;
63536;SDS011;49686;51.880;5.632;2023-12-07T07:31:32;31.10;;;9.02;;
63536;SDS011;49686;51.880;5.632;2023-12-07T07:34:00;27.90;;;9.30;;
63536;SDS011;49686;51.880;5.632;2023-12-07T07:36:27;44.92;;;10.90;;
63536;SDS011;49686;51.880;5.632;2023-12-07T07:38:54;33.35;;;9.93;;
63536;SDS011;49686;51.880;5.632;2023-12-07T07:41:22;41.95;;;11.18;;
63536;SDS011;49686;51.880;5.632;2023-12-07T07:43:49;34.08;;;10.82;;
63536;SDS011;49686;51.880;5.632;2023-12-07T07:46:16;39.65;;;10.30;;
63536;SDS011;49686;51.880;5.632;2023-12-07T07:48:43;35.17;;;10.00;;
63536;SDS011;49686;51.880;5.632;2023-12-07T07:51:11;21.02;;;8.95;;
63536;SDS011;49686;51.880;5.632;2023-12-07T07:53:38;23.85;;;8.45;;
63536;SDS011;49686;51.880;5.632;2023-12-07T07:56:05;34.80;;;9.18;;
63536;SDS011;49686;51.880;5.632;2023-12-07T07:58:32;52.55;;;10.80;;
63536;SDS011;49686;51.880;5.632;2023-12-07T08:00:59;36.17;;;10.10;;
63536;SDS011;49686;51.880;5.632;2023-12-07T08:03:26;48.83;;;9.75;;
63536;SDS011;49686;51.880;5.632;2023-12-07T08:05:53;26.95;;;8.77;;
63536;SDS011;49686;51.880;5.632;2023-12-07T08:08:22;45.92;;;9.63;;
63536;SDS011;49686;51.880;5.632;2023-12-07T08:10:48;24.90;;;8.43;;
63536;SDS011;49686;51.880;5.632;2023-12-07T08:13:22;24.42;;;8.10;;
63536;SDS011;49686;51.880;5.632;2023-12-07T08:15:49;28.30;;;8.73;;
63536;SDS011;49686;51.880;5.632;2023-12-07T08:18:16;43.15;;;8.90;;
63536;SDS011;49686;51.880;5.632;2023-12-07T08:20:43;20.05;;;7.43;;
63536;SDS011;49686;51.880;5.632;2023-12-07T08:23:10;48.28;;;8.65;;
63536;SDS011;49686;51.880;5.632;2023-12-07T08:25:39;44.72;;;8.57;;
63536;SDS011;49686;51.880;5.632;2023-12-07T08:28:06;39.25;;;7.35;;
63536;SDS011;49686;51.880;5.632;2023-12-07T08:30:33;30.70;;;6.93;;
63536;SDS011;49686;51.880;5.632;2023-12-07T08:33:00;22.67;;;6.43;;
63536;SDS011;49686;51.880;5.632;2023-12-07T08:35:27;36.45;;;7.45;;
63536;SDS011;49686;51.880;5.632;2023-12-07T08:37:54;19.77;;;6.18;;
63536;SDS011;49686;51.880;5.632;2023-12-07T08:40:21;18.60;;;6.60;;
63536;SDS011;49686;51.880;5.632;2023-12-07T08:42:49;19.50;;;6.22;;
63536;SDS011;49686;51.880;5.632;2023-12-07T08:45:18;30.02;;;7.40;;
63536;SDS011;49686;51.880;5.632;2023-12-07T08:47:45;21.15;;;7.00;;
63536;SDS011;49686;51.880;5.632;2023-12-07T08:50:12;24.85;;;6.15;;
63536;SDS011;49686;51.880;5.632;2023-12-07T08:52:39;15.38;;;5.95;;
63536;SDS011;49686;51.880;5.632;2023-12-07T08:55:15;14.05;;;5.65;;
63536;SDS011;49686;51.880;5.632;2023-12-07T08:57:42;24.60;;;6.53;;
63536;SDS011;49686;51.880;5.632;2023-12-07T09:00:11;30.70;;;6.72;;
63536;SDS011;49686;51.880;5.632;2023-12-07T09:05:13;12.50;;;4.25;;
63536;SDS011;49686;51.880;5.632;2023-12-07T09:07:40;16.45;;;5.60;;
63536;SDS011;49686;51.880;5.632;2023-12-07T09:10:09;41.72;;;6.57;;
63536;SDS011;49686;51.880;5.632;2023-12-07T09:12:36;28.40;;;5.35;;
63536;SDS011;49686;51.880;5.632;2023-12-07T09:15:05;25.20;;;6.13;;
63536;SDS011;49686;51.880;5.632;2023-12-07T09:17:34;12.85;;;5.28;;
63536;SDS011;49686;51.880;5.632;2023-12-07T09:20:02;47.03;;;6.32;;
63536;SDS011;49686;51.880;5.632;2023-12-07T09:22:30;18.77;;;6.22;;
63536;SDS011;49686;51.880;5.632;2023-12-07T09:25:03;26.80;;;6.95;;
63536;SDS011;49686;51.880;5.632;2023-12-07T09:27:31;23.80;;;6.55;;
63536;SDS011;49686;51.880;5.632;2023-12-07T09:29:58;19.67;;;5.60;;
63536;SDS011;49686;51.880;5.632;2023-12-07T09:32:25;19.33;;;6.05;;
63536;SDS011;49686;51.880;5.632;2023-12-07T09:35:03;13.63;;;5.57;;
63536;SDS011;49686;51.880;5.632;2023-12-07T09:37:31;23.77;;;6.57;;
63536;SDS011;49686;51.880;5.632;2023-12-07T09:39:58;15.13;;;6.05;;
63536;SDS011;49686;51.880;5.632;2023-12-07T09:42:25;18.65;;;6.13;;
63536;SDS011;49686;51.880;5.632;2023-12-07T09:45:01;13.05;;;5.70;;
63536;SDS011;49686;51.880;5.632;2023-12-07T09:47:28;15.00;;;5.85;;
63536;SDS011;49686;51.880;5.632;2023-12-07T09:50:05;17.98;;;6.53;;
63536;SDS011;49686;51.880;5.632;2023-12-07T09:52:33;20.10;;;6.15;;
63536;SDS011;49686;51.880;5.632;2023-12-07T09:55:01;16.17;;;5.65;;
63536;SDS011;49686;51.880;5.632;2023-12-07T09:57:29;19.52;;;6.10;;
63536;SDS011;49686;51.880;5.632;2023-12-07T09:59:57;19.55;;;6.70;;
63536;SDS011;49686;51.880;5.632;2023-12-07T10:02:24;18.10;;;6.32;;
63536;SDS011;49686;51.880;5.632;2023-12-07T10:05:02;16.95;;;5.78;;
63536;SDS011;49686;51.880;5.632;2023-12-07T10:07:32;13.65;;;5.03;;
63536;SDS011;49686;51.880;5.632;2023-12-07T10:10:00;26.33;;;7.43;;
63536;SDS011;49686;51.880;5.632;2023-12-07T10:12:27;26.85;;;7.00;;
63536;SDS011;49686;51.880;5.632;2023-12-07T10:14:54;15.13;;;6.22;;
63536;SDS011;49686;51.880;5.632;2023-12-07T10:17:21;19.48;;;6.07;;
63536;SDS011;49686;51.880;5.632;2023-12-07T10:19:54;28.70;;;7.13;;
63536;SDS011;49686;51.880;5.632;2023-12-07T10:22:34;16.45;;;6.75;;
63536;SDS011;49686;51.880;5.632;2023-12-07T10:25:01;19.42;;;6.82;;
63536;SDS011;49686;51.880;5.632;2023-12-07T10:27:29;23.92;;;7.78;;
63536;SDS011;49686;51.880;5.632;2023-12-07T10:29:58;17.13;;;7.47;;
63536;SDS011;49686;51.880;5.632;2023-12-07T10:34:52;22.75;;;7.85;;
63536;SDS011;49686;51.880;5.632;2023-12-07T10:37:20;24.25;;;8.68;;
63536;SDS011;49686;51.880;5.632;2023-12-07T10:39:47;36.78;;;9.60;;
63536;SDS011;49686;51.880;5.632;2023-12-07T10:42:14;30.17;;;9.65;;
63536;SDS011;49686;51.880;5.632;2023-12-07T10:44:44;21.60;;;8.45;;
63536;SDS011;49686;51.880;5.632;2023-12-07T10:47:15;29.88;;;8.93;;
63536;SDS011;49686;51.880;5.632;2023-12-07T10:49:43;23.80;;;8.50;;
63536;SDS011;49686;51.880;5.632;2023-12-07T10:52:15;28.17;;;8.30;;
63536;SDS011;49686;51.880;5.632;2023-12-07T10:54:50;26.70;;;8.48;;
63536;SDS011;49686;51.880;5.632;2023-12-07T10:57:27;28.80;;;8.82;;
63536;SDS011;49686;51.880;5.632;2023-12-07T10:59:57;34.47;;;10.75;;
63536;SDS011;49686;51.880;5.632;2023-12-07T11:02:26;28.42;;;10.25;;
63536;SDS011;49686;51.880;5.632;2023-12-07T11:04:54;23.52;;;8.50;;
63536;SDS011;49686;51.880;5.632;2023-12-07T11:07:24;27.70;;;9.75;;
63536;SDS011;49686;51.880;5.632;2023-12-07T11:09:58;27.25;;;9.80;;
63536;SDS011;49686;51.880;5.632;2023-12-07T11:12:33;26.02;;;8.85;;
63536;SDS011;49686;51.880;5.632;2023-12-07T11:15:04;28.42;;;9.68;;
63536;SDS011;49686;51.880;5.632;2023-12-07T11:17:47;27.00;;;9.82;;
63536;SDS011;49686;51.880;5.632;2023-12-07T11:20:18;31.65;;;10.75;;
63536;SDS011;49686;51.880;5.632;2023-12-07T11:22:45;27.38;;;10.20;;
63536;SDS011;49686;51.880;5.632;2023-12-07T11:25:14;22.83;;;8.60;;
63536;SDS011;49686;51.880;5.632;2023-12-07T11:27:43;27.65;;;9.88;;
63536;SDS011;49686;51.880;5.632;2023-12-07T11:30:11;33.83;;;11.48;;
63536;SDS011;49686;51.880;5.632;2023-12-07T11:32:39;33.00;;;11.77;;
63536;SDS011;49686;51.880;5.632;2023-12-07T11:35:07;35.35;;;12.80;;
63536;SDS011;49686;51.880;5.632;2023-12-07T11:40:34;32.20;;;12.55;;
63536;SDS011;49686;51.880;5.632;2023-12-07T11:43:01;29.42;;;10.50;;
63536;SDS011;49686;51.880;5.632;2023-12-07T11:45:38;30.00;;;10.65;;
63536;SDS011;49686;51.880;5.632;2023-12-07T11:48:06;32.60;;;12.63;;
63536;SDS011;49686;51.880;5.632;2023-12-07T11:50:34;27.08;;;10.23;;
63536;SDS011;49686;51.880;5.632;2023-12-07T11:53:01;33.47;;;12.90;;
63536;SDS011;49686;51.880;5.632;2023-12-07T11:55:28;31.35;;;12.07;;
63536;SDS011;49686;51.880;5.632;2023-12-07T11:57:59;30.42;;;11.95;;
63536;SDS011;49686;51.880;5.632;2023-12-07T12:00:26;24.92;;;10.55;;
63536;SDS011;49686;51.880;5.632;2023-12-07T12:02:53;30.10;;;12.45;;
63536;SDS011;49686;51.880;5.632;2023-12-07T12:05:22;26.65;;;11.00;;
63536;SDS011;49686;51.880;5.632;2023-12-07T12:07:49;28.15;;;12.63;;
63536;SDS011;49686;51.880;5.632;2023-12-07T12:10:16;32.60;;;13.23;;
63536;SDS011;49686;51.880;5.632;2023-12-07T12:12:43;29.55;;;11.88;;
63536;SDS011;49686;51.880;5.632;2023-12-07T12:15:11;27.80;;;11.05;;
63536;SDS011;49686;51.880;5.632;2023-12-07T12:17:38;29.20;;;11.88;;
63536;SDS011;49686;51.880;5.632;2023-12-07T12:20:05;30.92;;;12.95;;
63536;SDS011;49686;51.880;5.632;2023-12-07T12:22:33;36.70;;;12.98;;
63536;SDS011;49686;51.880;5.632;2023-12-07T12:25:03;35.38;;;13.27;;
63536;SDS011;49686;51.880;5.632;2023-12-07T12:27:32;30.92;;;11.88;;
63536;SDS011;49686;51.880;5.632;2023-12-07T12:29:59;33.42;;;12.48;;
63536;SDS011;49686;51.880;5.632;2023-12-07T12:32:29;33.28;;;12.70;;
63536;SDS011;49686;51.880;5.632;2023-12-07T12:35:08;31.58;;;12.23;;
63536;SDS011;49686;51.880;5.632;2023-12-07T12:37:35;29.98;;;12.95;;
63536;SDS011;49686;51.880;5.632;2023-12-07T12:40:05;32.88;;;12.48;;
63536;SDS011;49686;51.880;5.632;2023-12-07T12:42:32;37.92;;;14.68;;
63536;SDS011;49686;51.880;5.632;2023-12-07T12:44:59;38.30;;;15.20;;
63536;SDS011;49686;51.880;5.632;2023-12-07T12:47:26;33.88;;;12.95;;
63536;SDS011;49686;51.880;5.632;2023-12-07T12:49:55;38.17;;;14.50;;
63536;SDS011;49686;51.880;5.632;2023-12-07T12:52:23;34.08;;;13.45;;
63536;SDS011;49686;51.880;5.632;2023-12-07T12:54:50;33.33;;;13.88;;
63536;SDS011;49686;51.880;5.632;2023-12-07T12:57:17;38.88;;;15.13;;
63536;SDS011;49686;51.880;5.632;2023-12-07T12:59:44;41.78;;;14.93;;
63536;SDS011;49686;51.880;5.632;2023-12-07T13:02:11;27.65;;;11.15;;
63536;SDS011;49686;51.880;5.632;2023-12-07T13:04:40;42.78;;;17.05;;
63536;SDS011;49686;51.880;5.632;2023-12-07T13:07:08;33.95;;;14.50;;
63536;SDS011;49686;51.880;5.632;2023-12-07T13:09:35;39.03;;;15.90;;
63536;SDS011;49686;51.880;5.632;2023-12-07T13:12:02;39.55;;;15.93;;
63536;SDS011;49686;51.880;5.632;2023-12-07T13:14:31;35.63;;;14.55;;
63536;SDS011;49686;51.880;5.632;2023-12-07T13:16:58;31.75;;;13.55;;
63536;SDS011;49686;51.880;5.632;2023-12-07T13:19:25;36.13;;;14.98;;
63536;SDS011;49686;51.880;5.632;2023-12-07T13:21:54;32.78;;;14.15;;
63536;SDS011;49686;51.880;5.632;2023-12-07T13:24:20;33.25;;;14.18;;
63536;SDS011;49686;51.880;5.632;2023-12-07T13:26:47;36.92;;;14.98;;
63536;SDS011;49686;51.880;5.632;2023-12-07T13:29:14;36.33;;;14.13;;
63536;SDS011;49686;51.880;5.632;2023-12-07T13:31:54;35.15;;;13.85;;
63536;SDS011;49686;51.880;5.632;2023-12-07T13:34:21;33.53;;;13.73;;
63536;SDS011;49686;51.880;5.632;2023-12-07T13:36:49;30.05;;;12.93;;
63536;SDS011;49686;51.880;5.632;2023-12-07T13:39:18;37.90;;;14.05;;
63536;SDS011;49686;51.880;5.632;2023-12-07T13:41:56;33.80;;;13.70;;
63536;SDS011;49686;51.880;5.632;2023-12-07T13:44:23;30.88;;;13.00;;
63536;SDS011;49686;51.880;5.632;2023-12-07T13:46:54;31.75;;;13.30;;
63536;SDS011;49686;51.880;5.632;2023-12-07T13:49:21;32.75;;;13.20;;
63536;SDS011;49686;51.880;5.632;2023-12-07T13:51:59;32.42;;;13.23;;
63536;SDS011;49686;51.880;5.632;2023-12-07T13:54:33;34.63;;;14.43;;
63536;SDS011;49686;51.880;5.632;2023-12-07T13:57:18;35.75;;;13.27;;
63536;SDS011;49686;51.880;5.632;2023-12-07T13:59:45;32.33;;;13.13;;
63536;SDS011;49686;51.880;5.632;2023-12-07T14:02:12;35.22;;;13.13;;
63536;SDS011;49686;51.880;5.632;2023-12-07T14:04:39;35.75;;;13.20;;
63536;SDS011;49686;51.880;5.632;2023-12-07T14:07:07;35.60;;;12.60;;
63536;SDS011;49686;51.880;5.632;2023-12-07T14:09:36;28.00;;;11.27;;
63536;SDS011;49686;51.880;5.632;2023-12-07T14:12:18;34.08;;;13.35;;
63536;SDS011;49686;51.880;5.632;2023-12-07T14:14:46;34.75;;;13.63;;
63536;SDS011;49686;51.880;5.632;2023-12-07T14:17:13;35.00;;;13.68;;
63536;SDS011;49686;51.880;5.632;2023-12-07T14:19:41;34.85;;;14.07;;
63536;SDS011;49686;51.880;5.632;2023-12-07T14:22:09;33.70;;;13.65;;
63536;SDS011;49686;51.880;5.632;2023-12-07T14:24:37;35.20;;;14.07;;
63536;SDS011;49686;51.880;5.632;2023-12-07T14:27:05;31.77;;;12.25;;
63536;SDS011;49686;51.880;5.632;2023-12-07T14:29:33;27.52;;;11.60;;
63536;SDS011;49686;51.880;5.632;2023-12-07T14:32:00;36.40;;;14.63;;
63536;SDS011;49686;51.880;5.632;2023-12-07T14:34:30;32.40;;;12.88;;
63536;SDS011;49686;51.880;5.632;2023-12-07T14:37:01;30.63;;;13.40;;
63536;SDS011;49686;51.880;5.632;2023-12-07T14:39:29;32.85;;;12.68;;
63536;SDS011;49686;51.880;5.632;2023-12-07T14:41:57;31.77;;;12.15;;